AirNav   Air Wisconsin Up To $57,000 Bonus
 
 635 users online  

41G University Airpark
Bath, Michigan, USA

GOING TO BATH?


FAA INFORMATION EFFECTIVE 26 JANUARY 2023

Location

FAA Identifier: 41G
Lat/Long: 42-50-27.5950N 084-28-44.5700W
42-50.459917N 084-28.742833W
42.8409986,-84.4790472
(estimated)
Elevation: 856 ft. / 261 m (estimated)
Variation: 05W (1985)
From city: 2 miles NW of BATH, MI
Time zone: UTC -5 (UTC -4 during Daylight Saving Time)
Zip code: 48808

Airport Operations

Airport use: Open to the public
Activation date: 01/1968
Control tower: no
ARTCC: CLEVELAND CENTER
FSS: LANSING FLIGHT SERVICE STATION
NOTAMs facility: LAN (NOTAM-D service available)
Attendance: IREG
Wind indicator: yes
Segmented circle: no

Airport Communications

CTAF: 122.9
WX ASOS at LAN (6 nm SW): PHONE 517-908-8494
WX AWOS-3P at TEW (17 nm S): 119.425 (517-676-5607)
WX AWOS-3 at RNP (18 nm NE): 118.025 (989-729-2967)

Nearby radio navigation aids

VOR radial/distance  VOR name  Freq  Var
FNTr263/33.0FLINT VORTAC116.9006W

Airport Services

Airframe service: NONE
Powerplant service: NONE
Bottled oxygen: NONE
Bulk oxygen: NONE

Runway Information

Runway 8/26

Dimensions: 1994 x 100 ft. / 608 x 30 m
Surface: turf, in good condition
OCNL SOFT/WET AREAS AT EAST END DURG SPRING THAW & AFT HVY RAIN.
Runway edge markings: 3 FT YELLOW CONES.
RUNWAY 8  RUNWAY 26
Latitude: 42-50.434333N42-50.485500N
Longitude: 084-28.963167W084-28.522500W
Elevation: 840.0 ft.854.0 ft.
Traffic pattern: leftleft
Runway heading: 086 magnetic, 081 true266 magnetic, 261 true
Displaced threshold: no200 ft.
Runway end identifier lights: nono
Obstructions: 69 ft. trees, 337 ft. from runway, 60 ft. left of centerline, 4:1 slope to clear39 ft. tree, 234 ft. from runway, 120 ft. right of centerline, 6:1 slope to clear

Airport Ownership and Management from official FAA records

Ownership: Privately-owned
Owner: GAYLAND TENNIS
4100 HOWE RD
BATH, MI 48808-8482
Phone 517-881-6360
Manager: GAYLAND TENNIS
4100 HOWE RD
BATH, MI 48808-8482
Phone 517-881-6360

Airport Operational Statistics

Aircraft based on the field: 5
Single engine airplanes: 4
Helicopters: 1
    
Aircraft operations: avg 33/month *
50% transient general aviation
50% local general aviation
* for 12-month period ending 31 December 2021

Additional Remarks

TREES & HNGRS IN PRI SFC.
LRG BIRDS & DEER ON & INVOF ARPT.
FOR CD CTC GREAT LAKES APCH AT 269-459-3345, WHEN APCH CLSD CTC CLEVELAND ARTCC AT 440-774-0224/0490.

Instrument Procedures

There are no published instrument procedures at 41G.

Some nearby airports with instrument procedures:

KLAN - Capital Region International Airport (6 nm SW)
4D0 - Abrams Municipal Airport (12 nm W)
KTEW - Mason Jewett Field Airport (17 nm S)
KRNP - Owosso Community Airport (18 nm NE)
KFPK - Fitch H Beach Airport (22 nm SW)
 
Loc | Ops | Rwys | IFR | FBO | Links
Com | Nav | Svcs | Stats | Notes
Area around 41G (University Airpark)
 
Road maps at: MapQuest Bing Google
 
Aerial photo
No photo
 
Sectional chart

 
Airport distance calculator
Flying to University Airpark? Find the distance to fly.

From to 41G

Sunrise and sunset
Times for 02-Feb-2023
 Local
(UTC-5)
 Zulu
(UTC)
Morning civil twilight07:2312:23
Sunrise07:5312:53
Sunset17:5122:51
Evening civil twilight18:2123:21

Current date and time
Zulu (UTC)  02-Feb-2023 11:17:31
Local (UTC-5)  02-Feb-2023 06:17:31
 
METAR
KLAN 
6nm SW 
021053Z 21010KT 10SM CLR M07/M12 A3007 RMK AO2 SLP198 T10721122
KTEW 
17nm S 
021055Z AUTO 00000KT 10SM CLR M08/M13 A3008 RMK AO2 T10781129
KRNP 
18nm NE 
021055Z AUTO 20007KT 10SM CLR M07/M11 A3006 RMK AO2 T10671111
TAF
KLAN 
6nm SW 
020540Z 0206/0306 21013G20KT P6SM OVC100 FM021600 25011G16KT P6SM BKN150 FM022000 27012G18KT P6SM BKN025 FM030000 31013KT P6SM OVC040
NOTAMs
Click for the latest NOTAMs
NOTAMs are issued by the DoD/FAA and will open in a separate window not controlled by AirNav.

 

 
 

Would you like to see your business listed on this page?

 If your business provides an interesting product or service to pilots, flight crews, aircraft, or users of the University Airpark, you should consider listing it here.  To start the listing process, click on the button below
 
Add a business
 

Other Pages about University Airpark

Page from the Michigan Airport Directory (PDF)
 
Update a link
 
Copyright © AirNav, LLC. All rights reserved. Privacy Policy  Contact